sensor_id;sensor_type;location;lat;lon;timestamp;pressure;altitude;pressure_sealevel;temperature;humidity
57668;BME280;43499;52.366;12.912;2022-12-20T00:00:42;101499.47;;;3.23;100.00
57668;BME280;43499;52.366;12.912;2022-12-20T00:01:43;101483.72;;;3.15;100.00
57668;BME280;43499;52.366;12.912;2022-12-20T00:02:44;101482.97;;;3.16;100.00
57668;BME280;43499;52.366;12.912;2022-12-20T00:03:48;101490.38;;;3.13;100.00
57668;BME280;43499;52.366;12.912;2022-12-20T00:04:50;101513.81;;;3.27;100.00
57668;BME280;43499;52.366;12.912;2022-12-20T00:05:51;101493.72;;;3.19;100.00
57668;BME280;43499;52.366;12.912;2022-12-20T00:06:52;101525.50;;;3.31;100.00
57668;BME280;43499;52.366;12.912;2022-12-20T00:07:54;101493.19;;;3.21;100.00
57668;BME280;43499;52.366;12.912;2022-12-20T00:08:57;101502.09;;;3.31;100.00
57668;BME280;43499;52.366;12.912;2022-12-20T00:09:58;101494.84;;;3.21;100.00
57668;BME280;43499;52.366;12.912;2022-12-20T00:11:01;101489.81;;;3.08;100.00
57668;BME280;43499;52.366;12.912;2022-12-20T00:12:02;101486.09;;;3.13;100.00
57668;BME280;43499;52.366;12.912;2022-12-20T00:13:04;101506.75;;;3.26;100.00
57668;BME280;43499;52.366;12.912;2022-12-20T00:14:07;101487.59;;;3.18;100.00
57668;BME280;43499;52.366;12.912;2022-12-20T00:15:08;101503.03;;;3.31;100.00
57668;BME280;43499;52.366;12.912;2022-12-20T00:16:13;101503.59;;;3.29;100.00
57668;BME280;43499;52.366;12.912;2022-12-20T00:17:15;101462.72;;;3.13;100.00
57668;BME280;43499;52.366;12.912;2022-12-20T00:18:16;101479.63;;;3.31;100.00
57668;BME280;43499;52.366;12.912;2022-12-20T00:19:17;101459.78;;;3.17;100.00
57668;BME280;43499;52.366;12.912;2022-12-20T00:20:18;101466.25;;;3.21;100.00
57668;BME280;43499;52.366;12.912;2022-12-20T00:21:20;101478.91;;;3.25;100.00
57668;BME280;43499;52.366;12.912;2022-12-20T00:22:21;101469.22;;;3.17;100.00
57668;BME280;43499;52.366;12.912;2022-12-20T00:23:22;101469.97;;;3.08;100.00
57668;BME280;43499;52.366;12.912;2022-12-20T00:24:23;101458.81;;;3.02;100.00
57668;BME280;43499;52.366;12.912;2022-12-20T00:25:25;101476.81;;;3.22;100.00
57668;BME280;43499;52.366;12.912;2022-12-20T00:26:29;101468.69;;;3.19;100.00
57668;BME280;43499;52.366;12.912;2022-12-20T00:27:30;101484.81;;;3.31;100.00
57668;BME280;43499;52.366;12.912;2022-12-20T00:28:32;101472.19;;;3.20;100.00
57668;BME280;43499;52.366;12.912;2022-12-20T00:29:33;101487.44;;;3.31;100.00
57668;BME280;43499;52.366;12.912;2022-12-20T00:30:34;101472.22;;;3.27;100.00
57668;BME280;43499;52.366;12.912;2022-12-20T00:31:35;101458.28;;;3.19;100.00
57668;BME280;43499;52.366;12.912;2022-12-20T00:32:37;101485.03;;;3.33;100.00
57668;BME280;43499;52.366;12.912;2022-12-20T00:33:39;101483.19;;;3.32;100.00
57668;BME280;43499;52.366;12.912;2022-12-20T00:34:40;101483.53;;;3.20;100.00
57668;BME280;43499;52.366;12.912;2022-12-20T00:35:42;101491.88;;;3.32;100.00
57668;BME280;43499;52.366;12.912;2022-12-20T00:36:43;101497.44;;;3.28;100.00
57668;BME280;43499;52.366;12.912;2022-12-20T00:37:44;101482.97;;;3.23;100.00
57668;BME280;43499;52.366;12.912;2022-12-20T00:38:50;101496.69;;;3.29;100.00
57668;BME280;43499;52.366;12.912;2022-12-20T00:39:51;101483.16;;;3.24;100.00
57668;BME280;43499;52.366;12.912;2022-12-20T00:41:07;101489.28;;;3.25;100.00
57668;BME280;43499;52.366;12.912;2022-12-20T00:42:10;101485.56;;;3.23;100.00
57668;BME280;43499;52.366;12.912;2022-12-20T00:43:12;101435.97;;;2.92;100.00
57668;BME280;43499;52.366;12.912;2022-12-20T00:44:13;101429.88;;;2.92;100.00
57668;BME280;43499;52.366;12.912;2022-12-20T00:45:14;101487.44;;;3.24;100.00
57668;BME280;43499;52.366;12.912;2022-12-20T00:46:17;101453.44;;;3.01;100.00
57668;BME280;43499;52.366;12.912;2022-12-20T00:47:19;101463.09;;;3.16;100.00
57668;BME280;43499;52.366;12.912;2022-12-20T00:48:20;101438.59;;;2.92;100.00
57668;BME280;43499;52.366;12.912;2022-12-20T00:49:21;101479.25;;;3.21;100.00
57668;BME280;43499;52.366;12.912;2022-12-20T00:50:22;101482.81;;;3.21;100.00
57668;BME280;43499;52.366;12.912;2022-12-20T00:51:26;101484.81;;;3.17;100.00
57668;BME280;43499;52.366;12.912;2022-12-20T00:52:28;101467.53;;;3.03;100.00
57668;BME280;43499;52.366;12.912;2022-12-20T00:53:29;101476.84;;;3.08;100.00
57668;BME280;43499;52.366;12.912;2022-12-20T00:54:31;101419.63;;;2.72;100.00
57668;BME280;43499;52.366;12.912;2022-12-20T00:55:44;101412.19;;;2.60;100.00
57668;BME280;43499;52.366;12.912;2022-12-20T00:56:46;101446.16;;;2.84;100.00
57668;BME280;43499;52.366;12.912;2022-12-20T00:57:47;101482.78;;;3.07;100.00
57668;BME280;43499;52.366;12.912;2022-12-20T00:58:48;101486.84;;;3.05;100.00
57668;BME280;43499;52.366;12.912;2022-12-20T00:59:49;101451.16;;;2.75;100.00
57668;BME280;43499;52.366;12.912;2022-12-20T01:00:51;101469.00;;;2.93;100.00
57668;BME280;43499;52.366;12.912;2022-12-20T01:01:52;101474.59;;;2.97;100.00
57668;BME280;43499;52.366;12.912;2022-12-20T01:02:54;101481.25;;;2.87;100.00
57668;BME280;43499;52.366;12.912;2022-12-20T01:03:55;101466.19;;;2.85;100.00
57668;BME280;43499;52.366;12.912;2022-12-20T01:04:56;101467.84;;;2.77;100.00
57668;BME280;43499;52.366;12.912;2022-12-20T01:05:59;101487.53;;;2.89;100.00
57668;BME280;43499;52.366;12.912;2022-12-20T01:07:01;101454.09;;;2.64;100.00
57668;BME280;43499;52.366;12.912;2022-12-20T01:08:03;101488.09;;;2.94;100.00
57668;BME280;43499;52.366;12.912;2022-12-20T01:09:04;101497.56;;;2.93;100.00
57668;BME280;43499;52.366;12.912;2022-12-20T01:10:06;101497.00;;;2.82;100.00
57668;BME280;43499;52.366;12.912;2022-12-20T01:11:10;101495.16;;;2.95;100.00
57668;BME280;43499;52.366;12.912;2022-12-20T01:12:12;101453.03;;;2.76;100.00
57668;BME280;43499;52.366;12.912;2022-12-20T01:13:13;101474.53;;;2.82;100.00
57668;BME280;43499;52.366;12.912;2022-12-20T01:14:15;101489.38;;;2.90;100.00
57668;BME280;43499;52.366;12.912;2022-12-20T01:15:16;101491.47;;;2.93;100.00
57668;BME280;43499;52.366;12.912;2022-12-20T01:16:26;101486.78;;;2.90;100.00
57668;BME280;43499;52.366;12.912;2022-12-20T01:17:27;101480.66;;;2.83;100.00
57668;BME280;43499;52.366;12.912;2022-12-20T01:18:28;101491.06;;;2.90;100.00
57668;BME280;43499;52.366;12.912;2022-12-20T01:19:29;101484.91;;;2.75;100.00
57668;BME280;43499;52.366;12.912;2022-12-20T01:20:30;101480.28;;;2.80;100.00
57668;BME280;43499;52.366;12.912;2022-12-20T01:21:32;101493.28;;;2.87;100.00
57668;BME280;43499;52.366;12.912;2022-12-20T01:22:33;101497.75;;;2.88;100.00
57668;BME280;43499;52.366;12.912;2022-12-20T01:23:35;101494.59;;;2.90;100.00
57668;BME280;43499;52.366;12.912;2022-12-20T01:24:36;101445.19;;;2.61;100.00
57668;BME280;43499;52.366;12.912;2022-12-20T01:25:37;101475.28;;;2.74;100.00
57668;BME280;43499;52.366;12.912;2022-12-20T01:26:38;101464.09;;;2.68;100.00
57668;BME280;43499;52.366;12.912;2022-12-20T01:27:39;101491.41;;;2.86;100.00
57668;BME280;43499;52.366;12.912;2022-12-20T01:28:42;101497.00;;;2.89;100.00
57668;BME280;43499;52.366;12.912;2022-12-20T01:29:43;101475.84;;;2.78;100.00
57668;BME280;43499;52.366;12.912;2022-12-20T01:30:44;101448.69;;;2.62;100.00
57668;BME280;43499;52.366;12.912;2022-12-20T01:31:45;101485.84;;;2.83;100.00
57668;BME280;43499;52.366;12.912;2022-12-20T01:32:46;101485.88;;;2.90;100.00
57668;BME280;43499;52.366;12.912;2022-12-20T01:33:48;101472.69;;;2.81;100.00
57668;BME280;43499;52.366;12.912;2022-12-20T01:34:50;101472.84;;;2.83;100.00
57668;BME280;43499;52.366;12.912;2022-12-20T01:35:58;101472.69;;;2.81;100.00
57668;BME280;43499;52.366;12.912;2022-12-20T01:37:00;101462.63;;;2.77;100.00
57668;BME280;43499;52.366;12.912;2022-12-20T01:38:01;101488.66;;;2.84;100.00
57668;BME280;43499;52.366;12.912;2022-12-20T01:39:07;101495.50;;;2.84;100.00
57668;BME280;43499;52.366;12.912;2022-12-20T01:40:09;101503.28;;;2.84;100.00
57668;BME280;43499;52.366;12.912;2022-12-20T01:41:14;101482.69;;;2.78;100.00
57668;BME280;43499;52.366;12.912;2022-12-20T01:42:16;101486.78;;;2.83;100.00
57668;BME280;43499;52.366;12.912;2022-12-20T01:43:18;101482.50;;;2.84;100.00
57668;BME280;43499;52.366;12.912;2022-12-20T01:45:26;101483.84;;;2.87;100.00
57668;BME280;43499;52.366;12.912;2022-12-20T01:46:30;101477.16;;;2.89;100.00
57668;BME280;43499;52.366;12.912;2022-12-20T01:47:33;101468.03;;;2.78;100.00
57668;BME280;43499;52.366;12.912;2022-12-20T01:48:35;101486.06;;;2.84;100.00
57668;BME280;43499;52.366;12.912;2022-12-20T01:49:39;101484.19;;;2.90;100.00
57668;BME280;43499;52.366;12.912;2022-12-20T01:50:42;101433.88;;;2.61;100.00
57668;BME280;43499;52.366;12.912;2022-12-20T01:51:49;101466.00;;;2.76;100.00
57668;BME280;43499;52.366;12.912;2022-12-20T01:52:51;101470.81;;;2.73;100.00
57668;BME280;43499;52.366;12.912;2022-12-20T01:53:57;101474.38;;;2.81;100.00
57668;BME280;43499;52.366;12.912;2022-12-20T01:55:08;101482.16;;;2.81;100.00
57668;BME280;43499;52.366;12.912;2022-12-20T01:56:10;101452.25;;;2.62;100.00
57668;BME280;43499;52.366;12.912;2022-12-20T01:57:15;101488.44;;;2.75;100.00
57668;BME280;43499;52.366;12.912;2022-12-20T01:58:18;101463.53;;;2.63;100.00
57668;BME280;43499;52.366;12.912;2022-12-20T01:59:20;101464.81;;;2.59;100.00
57668;BME280;43499;52.366;12.912;2022-12-20T02:00:21;101488.09;;;2.80;100.00
57668;BME280;43499;52.366;12.912;2022-12-20T02:01:23;101488.44;;;2.75;100.00
57668;BME280;43499;52.366;12.912;2022-12-20T02:02:25;101444.00;;;2.45;100.00
57668;BME280;43499;52.366;12.912;2022-12-20T02:03:28;101466.13;;;2.63;100.00
57668;BME280;43499;52.366;12.912;2022-12-20T02:04:30;101470.41;;;2.70;100.00
57668;BME280;43499;52.366;12.912;2022-12-20T02:05:36;101468.00;;;2.71;100.00
57668;BME280;43499;52.366;12.912;2022-12-20T02:06:37;101478.06;;;2.83;100.00
57668;BME280;43499;52.366;12.912;2022-12-20T02:07:40;101464.31;;;2.76;100.00
57668;BME280;43499;52.366;12.912;2022-12-20T02:08:43;101480.13;;;2.85;100.00
57668;BME280;43499;52.366;12.912;2022-12-20T02:09:46;101461.91;;;2.78;100.00
57668;BME280;43499;52.366;12.912;2022-12-20T02:11:10;101485.31;;;2.92;100.00
57668;BME280;43499;52.366;12.912;2022-12-20T02:12:19;101484.03;;;2.96;100.00
57668;BME280;43499;52.366;12.912;2022-12-20T02:13:39;101453.78;;;2.82;100.00
57668;BME280;43499;52.366;12.912;2022-12-20T02:14:55;101469.91;;;2.94;100.00
57668;BME280;43499;52.366;12.912;2022-12-20T02:15:58;101430.19;;;2.73;100.00
57668;BME280;43499;52.366;12.912;2022-12-20T02:18:18;101476.28;;;3.03;100.00
57668;BME280;43499;52.366;12.912;2022-12-20T02:21:11;101452.34;;;2.99;100.00
57668;BME280;43499;52.366;12.912;2022-12-20T02:25:14;101464.63;;;3.21;100.00
57668;BME280;43499;52.366;12.912;2022-12-20T02:26:41;101444.38;;;3.12;100.00
57668;BME280;43499;52.366;12.912;2022-12-20T02:28:00;101457.56;;;3.20;100.00
57668;BME280;43499;52.366;12.912;2022-12-20T02:29:17;101426.56;;;3.15;100.00
57668;BME280;43499;52.366;12.912;2022-12-20T02:30:22;101442.31;;;3.23;100.00
57668;BME280;43499;52.366;12.912;2022-12-20T02:31:33;101446.06;;;3.33;100.00
57668;BME280;43499;52.366;12.912;2022-12-20T02:32:46;101445.84;;;3.31;100.00
57668;BME280;43499;52.366;12.912;2022-12-20T02:33:51;101452.72;;;3.38;100.00
57668;BME280;43499;52.366;12.912;2022-12-20T02:34:55;101404.47;;;3.04;100.00
57668;BME280;43499;52.366;12.912;2022-12-20T02:35:56;101446.81;;;3.32;100.00
57668;BME280;43499;52.366;12.912;2022-12-20T02:36:57;101410.97;;;3.15;100.00
57668;BME280;43499;52.366;12.912;2022-12-20T02:38:01;101401.69;;;3.09;100.00
57668;BME280;43499;52.366;12.912;2022-12-20T02:39:03;101379.59;;;2.91;100.00
57668;BME280;43499;52.366;12.912;2022-12-20T02:40:05;101443.81;;;3.29;100.00
57668;BME280;43499;52.366;12.912;2022-12-20T02:41:10;101433.78;;;3.24;100.00
57668;BME280;43499;52.366;12.912;2022-12-20T02:42:14;101433.25;;;3.34;100.00
57668;BME280;43499;52.366;12.912;2022-12-20T02:43:19;101413.00;;;3.24;100.00
57668;BME280;43499;52.366;12.912;2022-12-20T02:44:43;101424.88;;;3.37;100.00
57668;BME280;43499;52.366;12.912;2022-12-20T02:46:06;101359.94;;;2.93;100.00
57668;BME280;43499;52.366;12.912;2022-12-20T02:47:13;101423.94;;;3.29;100.00
57668;BME280;43499;52.366;12.912;2022-12-20T02:48:16;101382.38;;;3.07;100.00
57668;BME280;43499;52.366;12.912;2022-12-20T02:49:21;101384.78;;;3.13;100.00
57668;BME280;43499;52.366;12.912;2022-12-20T02:50:31;101422.69;;;3.33;100.00
57668;BME280;43499;52.366;12.912;2022-12-20T02:51:34;101411.91;;;3.30;100.00
57668;BME280;43499;52.366;12.912;2022-12-20T02:52:36;101375.53;;;3.08;100.00
57668;BME280;43499;52.366;12.912;2022-12-20T02:53:39;101409.13;;;3.35;100.00
57668;BME280;43499;52.366;12.912;2022-12-20T02:54:40;101422.69;;;3.33;100.00
57668;BME280;43499;52.366;12.912;2022-12-20T02:55:53;101409.84;;;3.34;100.00
57668;BME280;43499;52.366;12.912;2022-12-20T02:57:04;101411.88;;;3.37;100.00
57668;BME280;43499;52.366;12.912;2022-12-20T02:58:15;101393.16;;;3.32;100.00
57668;BME280;43499;52.366;12.912;2022-12-20T02:59:24;101413.72;;;3.45;100.00
57668;BME280;43499;52.366;12.912;2022-12-20T03:00:31;101401.09;;;3.48;100.00
57668;BME280;43499;52.366;12.912;2022-12-20T03:01:37;101396.69;;;3.40;100.00
57668;BME280;43499;52.366;12.912;2022-12-20T03:02:40;101399.44;;;3.42;100.00
57668;BME280;43499;52.366;12.912;2022-12-20T03:04:02;101386.28;;;3.40;100.00
57668;BME280;43499;52.366;12.912;2022-12-20T03:05:04;101403.34;;;3.45;100.00
57668;BME280;43499;52.366;12.912;2022-12-20T03:06:06;101396.66;;;3.47;100.00
57668;BME280;43499;52.366;12.912;2022-12-20T03:07:12;101403.53;;;3.61;100.00
57668;BME280;43499;52.366;12.912;2022-12-20T03:08:14;101408.53;;;3.67;100.00
57668;BME280;43499;52.366;12.912;2022-12-20T03:09:15;101416.13;;;3.65;100.00
57668;BME280;43499;52.366;12.912;2022-12-20T03:10:17;101426.91;;;3.68;100.00
57668;BME280;43499;52.366;12.912;2022-12-20T03:11:18;101411.31;;;3.68;100.00
57668;BME280;43499;52.366;12.912;2022-12-20T03:12:20;101387.75;;;3.45;100.00
57668;BME280;43499;52.366;12.912;2022-12-20T03:13:22;101402.97;;;3.57;100.00
57668;BME280;43499;52.366;12.912;2022-12-20T03:14:32;101415.00;;;3.63;100.00
57668;BME280;43499;52.366;12.912;2022-12-20T03:15:35;101411.88;;;3.66;100.00
57668;BME280;43499;52.366;12.912;2022-12-20T03:16:37;101362.31;;;3.43;100.00
57668;BME280;43499;52.366;12.912;2022-12-20T03:17:38;101396.66;;;3.54;100.00
57668;BME280;43499;52.366;12.912;2022-12-20T03:18:39;101351.00;;;3.35;100.00
57668;BME280;43499;52.366;12.912;2022-12-20T03:19:40;101407.22;;;3.63;100.00
57668;BME280;43499;52.366;12.912;2022-12-20T03:20:42;101366.22;;;3.39;100.00
57668;BME280;43499;52.366;12.912;2022-12-20T03:21:43;101408.00;;;3.62;100.00
57668;BME280;43499;52.366;12.912;2022-12-20T03:22:47;101399.81;;;3.52;100.00
57668;BME280;43499;52.366;12.912;2022-12-20T03:23:48;101402.78;;;3.55;100.00
57668;BME280;43499;52.366;12.912;2022-12-20T03:24:49;101396.66;;;3.47;100.00
57668;BME280;43499;52.366;12.912;2022-12-20T03:25:50;101399.06;;;3.53;100.00
57668;BME280;43499;52.366;12.912;2022-12-20T03:27:01;101425.97;;;3.61;100.00
57668;BME280;43499;52.366;12.912;2022-12-20T03:28:02;101427.84;;;3.62;100.00
57668;BME280;43499;52.366;12.912;2022-12-20T03:29:04;101384.03;;;3.36;100.00
57668;BME280;43499;52.366;12.912;2022-12-20T03:30:05;101423.19;;;3.66;100.00
57668;BME280;43499;52.366;12.912;2022-12-20T03:31:09;101413.53;;;3.65;100.00
57668;BME280;43499;52.366;12.912;2022-12-20T03:32:18;101383.31;;;3.44;100.00
57668;BME280;43499;52.366;12.912;2022-12-20T03:33:20;101412.22;;;3.69;100.00
57668;BME280;43499;52.366;12.912;2022-12-20T03:34:22;101363.63;;;3.39;100.00
57668;BME280;43499;52.366;12.912;2022-12-20T03:35:23;101384.97;;;3.58;100.00
57668;BME280;43499;52.366;12.912;2022-12-20T03:36:24;101412.59;;;3.72;100.00
57668;BME280;43499;52.366;12.912;2022-12-20T03:37:29;101398.69;;;3.72;100.00
57668;BME280;43499;52.366;12.912;2022-12-20T03:38:30;101396.06;;;3.64;100.00
57668;BME280;43499;52.366;12.912;2022-12-20T03:39:32;101351.00;;;3.42;100.00
57668;BME280;43499;52.366;12.912;2022-12-20T03:40:33;101407.59;;;3.74;100.00
57668;BME280;43499;52.366;12.912;2022-12-20T03:41:35;101400.88;;;3.76;100.00
57668;BME280;43499;52.366;12.912;2022-12-20T03:42:37;101414.44;;;3.73;100.00
57668;BME280;43499;52.366;12.912;2022-12-20T03:43:38;101396.09;;;3.57;100.00
57668;BME280;43499;52.366;12.912;2022-12-20T03:44:39;101410.00;;;3.72;100.00
57668;BME280;43499;52.366;12.912;2022-12-20T03:45:40;101404.25;;;3.67;100.00
57668;BME280;43499;52.366;12.912;2022-12-20T03:46:41;101399.78;;;3.66;100.00
57668;BME280;43499;52.366;12.912;2022-12-20T03:47:43;101411.31;;;3.68;100.00
57668;BME280;43499;52.366;12.912;2022-12-20T03:48:44;101409.63;;;3.69;100.00
57668;BME280;43499;52.366;12.912;2022-12-20T03:49:46;101371.97;;;3.44;100.00
57668;BME280;43499;52.366;12.912;2022-12-20T03:50:47;101342.66;;;3.30;100.00
57668;BME280;43499;52.366;12.912;2022-12-20T03:51:48;101399.25;;;3.54;100.00
57668;BME280;43499;52.366;12.912;2022-12-20T03:52:49;101423.72;;;3.71;100.00
57668;BME280;43499;52.366;12.912;2022-12-20T03:53:51;101371.97;;;3.44;100.00
57668;BME280;43499;52.366;12.912;2022-12-20T03:54:53;101370.13;;;3.35;100.00
57668;BME280;43499;52.366;12.912;2022-12-20T03:55:58;101415.03;;;3.70;100.00
57668;BME280;43499;52.366;12.912;2022-12-20T03:56:59;101404.06;;;3.66;100.00
57668;BME280;43499;52.366;12.912;2022-12-20T03:58:00;101403.66;;;3.70;100.00
57668;BME280;43499;52.366;12.912;2022-12-20T03:59:06;101402.75;;;3.69;100.00
57668;BME280;43499;52.366;12.912;2022-12-20T04:00:08;101406.84;;;3.67;100.00
57668;BME280;43499;52.366;12.912;2022-12-20T04:01:19;101394.41;;;3.65;100.00
57668;BME280;43499;52.366;12.912;2022-12-20T04:02:21;101396.09;;;3.57;100.00
57668;BME280;43499;52.366;12.912;2022-12-20T04:03:22;101379.56;;;3.49;100.00
57668;BME280;43499;52.366;12.912;2022-12-20T04:04:23;101364.00;;;3.35;100.00
57668;BME280;43499;52.366;12.912;2022-12-20T04:05:24;101396.81;;;3.63;100.00
57668;BME280;43499;52.366;12.912;2022-12-20T04:06:25;101391.47;;;3.54;100.00
57668;BME280;43499;52.366;12.912;2022-12-20T04:07:26;101389.97;;;3.49;100.00
57668;BME280;43499;52.366;12.912;2022-12-20T04:08:27;101400.38;;;3.57;100.00
57668;BME280;43499;52.366;12.912;2022-12-20T04:09:29;101350.66;;;3.32;100.00
57668;BME280;43499;52.366;12.912;2022-12-20T04:10:37;101344.88;;;3.42;100.00
57668;BME280;43499;52.366;12.912;2022-12-20T04:12:00;101391.81;;;3.65;100.00
57668;BME280;43499;52.366;12.912;2022-12-20T04:13:02;101387.91;;;3.68;100.00
57668;BME280;43499;52.366;12.912;2022-12-20T04:14:03;101365.09;;;3.51;100.00
57668;BME280;43499;52.366;12.912;2022-12-20T04:15:05;101373.63;;;3.65;100.00
57668;BME280;43499;52.366;12.912;2022-12-20T04:16:07;101392.53;;;3.71;100.00
57668;BME280;43499;52.366;12.912;2022-12-20T04:17:08;101363.63;;;3.53;100.00
57668;BME280;43499;52.366;12.912;2022-12-20T04:18:11;101350.59;;;3.46;100.00
57668;BME280;43499;52.366;12.912;2022-12-20T04:19:12;101400.72;;;3.67;100.00
57668;BME280;43499;52.366;12.912;2022-12-20T04:20:19;101409.63;;;3.69;100.00
57668;BME280;43499;52.366;12.912;2022-12-20T04:21:32;101388.88;;;3.54;100.00
57668;BME280;43499;52.366;12.912;2022-12-20T04:22:34;101403.66;;;3.70;100.00
57668;BME280;43499;52.366;12.912;2022-12-20T04:23:40;101374.56;;;3.51;100.00
57668;BME280;43499;52.366;12.912;2022-12-20T04:24:42;101400.53;;;3.73;100.00
57668;BME280;43499;52.366;12.912;2022-12-20T04:26:05;101376.22;;;3.65;100.00
57668;BME280;43499;52.366;12.912;2022-12-20T04:27:07;101385.47;;;3.70;100.00
57668;BME280;43499;52.366;12.912;2022-12-20T04:28:08;101392.53;;;3.71;100.00
57668;BME280;43499;52.366;12.912;2022-12-20T04:29:09;101380.66;;;3.73;100.00
57668;BME280;43499;52.366;12.912;2022-12-20T04:30:10;101349.50;;;3.51;100.00
57668;BME280;43499;52.366;12.912;2022-12-20T04:31:12;101346.91;;;3.51;100.00
57668;BME280;43499;52.366;12.912;2022-12-20T04:32:13;101363.97;;;3.64;100.00
57668;BME280;43499;52.366;12.912;2022-12-20T04:33:14;101386.22;;;3.69;100.00
57668;BME280;43499;52.366;12.912;2022-12-20T04:34:16;101327.63;;;3.35;100.00
57668;BME280;43499;52.366;12.912;2022-12-20T04:35:17;101350.22;;;3.58;100.00
57668;BME280;43499;52.366;12.912;2022-12-20T04:36:19;101379.72;;;3.65;100.00
57668;BME280;43499;52.366;12.912;2022-12-20T04:37:20;101383.44;;;3.67;100.00
57668;BME280;43499;52.366;12.912;2022-12-20T04:38:25;101373.81;;;3.59;100.00
57668;BME280;43499;52.366;12.912;2022-12-20T04:39:27;101357.88;;;3.49;100.00
57668;BME280;43499;52.366;12.912;2022-12-20T04:40:48;101376.00;;;3.63;100.00
57668;BME280;43499;52.366;12.912;2022-12-20T04:41:49;101346.38;;;3.47;100.00
57668;BME280;43499;52.366;12.912;2022-12-20T04:42:50;101381.00;;;3.69;100.00
57668;BME280;43499;52.366;12.912;2022-12-20T04:43:55;101386.22;;;3.69;100.00
57668;BME280;43499;52.366;12.912;2022-12-20T04:44:59;101383.28;;;3.66;100.00
57668;BME280;43499;52.366;12.912;2022-12-20T04:46:03;101370.47;;;3.60;100.00
57668;BME280;43499;52.366;12.912;2022-12-20T04:47:04;101380.13;;;3.54;100.00
57668;BME280;43499;52.366;12.912;2022-12-20T04:48:05;101370.13;;;3.50;100.00
57668;BME280;43499;52.366;12.912;2022-12-20T04:49:11;101359.94;;;3.44;100.00
57668;BME280;43499;52.366;12.912;2022-12-20T04:50:14;101377.00;;;3.57;100.00
57668;BME280;43499;52.366;12.912;2022-12-20T04:51:17;101395.34;;;3.58;100.00
57668;BME280;43499;52.366;12.912;2022-12-20T04:52:18;101378.25;;;3.53;100.00
57668;BME280;43499;52.366;12.912;2022-12-20T04:53:38;101363.78;;;3.62;100.00
57668;BME280;43499;52.366;12.912;2022-12-20T04:54:57;101377.50;;;3.68;100.00
57668;BME280;43499;52.366;12.912;2022-12-20T04:56:03;101393.09;;;3.68;100.00
57668;BME280;43499;52.366;12.912;2022-12-20T04:57:04;101404.03;;;3.73;100.00
57668;BME280;43499;52.366;12.912;2022-12-20T04:58:06;101395.88;;;3.70;100.00
57668;BME280;43499;52.366;12.912;2022-12-20T04:59:08;101369.56;;;3.52;100.00
57668;BME280;43499;52.366;12.912;2022-12-20T05:00:11;101342.47;;;3.43;100.00
57668;BME280;43499;52.366;12.912;2022-12-20T05:01:17;101398.66;;;3.79;100.00
57668;BME280;43499;52.366;12.912;2022-12-20T05:02:23;101383.63;;;3.76;100.00
57668;BME280;43499;52.366;12.912;2022-12-20T05:03:27;101387.88;;;3.76;100.00
57668;BME280;43499;52.366;12.912;2022-12-20T05:04:29;101384.72;;;3.71;100.00
57668;BME280;43499;52.366;12.912;2022-12-20T05:05:30;101364.69;;;3.63;100.00
57668;BME280;43499;52.366;12.912;2022-12-20T05:06:32;101345.41;;;3.46;100.00
57668;BME280;43499;52.366;12.912;2022-12-20T05:07:33;101374.34;;;3.71;100.00
57668;BME280;43499;52.366;12.912;2022-12-20T05:08:34;101353.59;;;3.57;100.00
57668;BME280;43499;52.366;12.912;2022-12-20T05:09:36;101378.41;;;3.76;100.00
57668;BME280;43499;52.366;12.912;2022-12-20T05:10:37;101384.75;;;3.78;100.00
57668;BME280;43499;52.366;12.912;2022-12-20T05:11:38;101350.63;;;3.53;100.00
57668;BME280;43499;52.366;12.912;2022-12-20T05:12:42;101341.13;;;3.54;100.00
57668;BME280;43499;52.366;12.912;2022-12-20T05:13:48;101376.94;;;3.78;100.00
57668;BME280;43499;52.366;12.912;2022-12-20T05:14:52;101370.78;;;3.78;100.00
57668;BME280;43499;52.366;12.912;2022-12-20T05:15:56;101377.84;;;3.79;100.00
57668;BME280;43499;52.366;12.912;2022-12-20T05:17:00;101354.28;;;3.77;100.00
57668;BME280;43499;52.366;12.912;2022-12-20T05:18:03;101351.47;;;3.76;100.00
57668;BME280;43499;52.366;12.912;2022-12-20T05:19:14;101365.22;;;3.82;100.00
57668;BME280;43499;52.366;12.912;2022-12-20T05:20:16;101371.53;;;3.84;100.00
57668;BME280;43499;52.366;12.912;2022-12-20T05:21:19;101364.47;;;3.83;100.00
57668;BME280;43499;52.366;12.912;2022-12-20T05:22:40;101368.72;;;3.82;100.00
57668;BME280;43499;52.366;12.912;2022-12-20T05:24:00;101361.66;;;3.81;100.00
57668;BME280;43499;52.366;12.912;2022-12-20T05:25:30;101370.78;;;3.85;100.00
57668;BME280;43499;52.366;12.912;2022-12-20T05:26:51;101359.06;;;3.81;100.00
57668;BME280;43499;52.366;12.912;2022-12-20T05:27:53;101357.78;;;3.78;100.00
57668;BME280;43499;52.366;12.912;2022-12-20T05:28:56;101307.53;;;3.48;100.00
57668;BME280;43499;52.366;12.912;2022-12-20T05:29:59;101370.00;;;3.86;100.00
57668;BME280;43499;52.366;12.912;2022-12-20T05:31:02;101315.13;;;3.61;100.00
57668;BME280;43499;52.366;12.912;2022-12-20T05:32:06;101312.91;;;3.57;100.00
57668;BME280;43499;52.366;12.912;2022-12-20T05:33:12;101340.19;;;3.68;100.00
57668;BME280;43499;52.366;12.912;2022-12-20T05:34:16;101314.41;;;3.62;100.00
57668;BME280;43499;52.366;12.912;2022-12-20T05:35:22;101354.25;;;3.84;100.00
57668;BME280;43499;52.366;12.912;2022-12-20T05:36:28;101336.81;;;3.69;100.00
57668;BME280;43499;52.366;12.912;2022-12-20T05:37:31;101332.34;;;3.75;100.00